Time;durP1;ratioP1;P1;durP2;ratioP2;P2;SDS_P1;SDS_P2;PMS_P1;PMS_P2;Temp;Humidity;BMP_temperature;BMP_pressure;BME280_temperature;BME280_humidity;BME280_pressure;Samples;Min_cycle;Max_cycle;Signal;HPM_P1;HPM_P2
2023/11/09 00:00:29;;;;;;;8.50;3.23;;;;;;;7.08;100.00;99889.72;7373412;19;20419;-42
2023/11/09 00:02:59;;;;;;;7.47;1.50;;;;;;;7.06;100.00;99881.97;7394867;19;20483;-41
2023/11/09 00:05:29;;;;;;;10.10;1.20;;;;;;;7.07;100.00;99896.53;7372218;19;20460;-41
2023/11/09 00:08:01;;;;;;;3.50;1.40;;;;;;;7.06;100.00;99889.66;7394234;19;20786;-50
2023/11/09 00:10:31;;;;;;;3.73;1.43;;;;;;;7.09;100.00;99901.75;7373119;19;20424;-41
2023/11/09 00:13:00;;;;;;;6.83;2.60;;;;;;;7.12;100.00;99900.19;7394682;19;20400;-41
2023/11/09 00:15:30;;;;;;;2.03;1.13;;;;;;;7.13;100.00;99904.50;7373481;19;20454;-42
2023/11/09 00:18:00;;;;;;;2.17;1.00;;;;;;;7.17;100.00;99902.94;7391592;19;20426;-41
2023/11/09 00:20:30;;;;;;;21.57;7.90;;;;;;;7.22;100.00;99900.56;7372104;19;20433;-43
2023/11/09 00:23:02;;;;;;;3.13;1.43;;;;;;;7.21;100.00;99897.13;7396274;19;20994;-42
2023/11/09 00:25:31;;;;;;;2.50;1.23;;;;;;;7.21;100.00;99901.38;7373688;19;20448;-40
2023/11/09 00:28:03;;;;;;;3.27;1.33;;;;;;;7.19;100.00;99896.19;7393162;19;20419;-41
2023/11/09 00:30:32;;;;;;;8.70;3.20;;;;;;;7.21;100.00;99898.78;7371886;19;20439;-41
2023/11/09 00:33:02;;;;;;;4.70;2.37;;;;;;;7.25;100.00;99927.25;7394470;19;20759;-39
2023/11/09 00:35:32;;;;;;;3.30;1.17;;;;;;;7.21;100.00;99991.16;7373396;19;20423;-42
2023/11/09 00:38:06;;;;;;;4.43;2.20;;;;;;;7.24;100.00;100009.28;7392955;19;20427;-41
2023/11/09 00:40:35;;;;;;;5.20;1.70;;;;;;;7.23;100.00;100021.22;7371868;19;20423;-40
2023/11/09 00:43:05;;;;;;;2.97;1.27;;;;;;;7.20;100.00;100033.03;7394165;19;20419;-41
2023/11/09 00:45:35;;;;;;;20.40;6.90;;;;;;;7.22;100.00;100054.53;7371881;19;20487;-41
2023/11/09 00:48:05;;;;;;;6.33;2.17;;;;;;;7.23;100.00;100066.53;7393360;19;20516;-40
2023/11/09 00:50:35;;;;;;;4.23;1.90;;;;;;;7.21;100.00;100073.28;7371093;19;20426;-41
2023/11/09 00:53:07;;;;;;;5.10;1.90;;;;;;;7.22;100.00;100095.56;7393003;19;20426;-41
2023/11/09 00:55:37;;;;;;;8.27;3.90;;;;;;;7.24;100.00;100105.06;7371070;19;20423;-41
2023/11/09 00:58:06;;;;;;;7.03;1.90;;;;;;;7.24;100.00;100129.88;7393172;19;20432;-41
2023/11/09 01:00:36;;;;;;;5.67;2.60;;;;;;;7.25;100.00;100121.34;7366107;19;20423;-39
2023/11/09 01:03:06;;;;;;;3.30;1.70;;;;;;;7.26;100.00;100153.91;7393766;19;20411;-41
2023/11/09 01:05:35;;;;;;;3.00;1.60;;;;;;;7.26;100.00;100159.03;7368997;19;20483;-39
2023/11/09 01:08:10;;;;;;;7.33;2.70;;;;;;;7.29;100.00;100154.91;7392641;19;20425;-40
2023/11/09 01:10:43;;;;;;;5.77;1.50;;;;;;;7.29;100.00;100154.91;7370937;19;20423;-40
2023/11/09 01:13:12;;;;;;;3.57;2.00;;;;;;;7.33;100.00;100160.22;7392868;19;20407;-40
2023/11/09 01:15:42;;;;;;;12.50;4.73;;;;;;;7.35;100.00;100149.22;7371502;19;20436;-40
2023/11/09 01:18:12;;;;;;;9.00;4.20;;;;;;;7.38;100.00;100149.31;7392476;19;20411;-40
2023/11/09 01:20:41;;;;;;;7.43;3.30;;;;;;;7.41;100.00;100144.34;7370861;19;20858;-41
2023/11/09 01:23:13;;;;;;;14.90;5.93;;;;;;;7.43;100.00;100129.88;7392725;19;20408;-41
2023/11/09 01:25:43;;;;;;;2.67;1.80;;;;;;;7.42;100.00;100120.44;7370412;19;20423;-39
2023/11/09 01:28:13;;;;;;;3.70;1.60;;;;;;;7.41;100.00;100108.41;7392206;19;20399;-39
2023/11/09 01:30:42;;;;;;;7.20;3.67;;;;;;;7.40;100.00;100103.22;7363335;19;20906;-41
2023/11/09 01:33:12;;;;;;;4.10;1.60;;;;;;;7.42;100.00;100110.16;7384011;19;20422;-39
2023/11/09 01:35:42;;;;;;;7.13;3.37;;;;;;;7.43;100.00;100109.34;7363863;19;20974;-41
2023/11/09 01:38:14;;;;;;;9.30;2.93;;;;;;;7.47;100.00;100106.91;7384032;19;20927;-42
2023/11/09 01:40:44;;;;;;;4.70;2.03;;;;;;;7.45;100.00;100100.84;7362981;19;20490;-41
2023/11/09 01:43:14;;;;;;;5.20;2.23;;;;;;;7.47;100.00;100091.50;7386917;19;20762;-41
2023/11/09 01:45:45;;;;;;;29.57;12.53;;;;;;;7.58;100.00;100080.00;7364721;19;20514;-41
2023/11/09 01:48:15;;;;;;;6.30;2.60;;;;;;;7.54;100.00;100058.47;7383857;19;20954;-42
2023/11/09 01:50:44;;;;;;;22.53;7.00;;;;;;;7.55;100.00;100049.09;7362953;19;20518;-40
2023/11/09 01:53:17;;;;;;;9.27;3.97;;;;;;;7.55;100.00;100028.56;7383645;19;20407;-40
2023/11/09 01:55:46;;;;;;;5.50;2.50;;;;;;;7.59;100.00;100002.19;7363142;19;21333;-40
2023/11/09 01:58:16;;;;;;;3.43;1.27;;;;;;;7.62;100.00;99984.34;7384573;19;20415;-40
2023/11/09 02:00:47;;;;;;;4.50;1.73;;;;;;;7.59;100.00;99968.81;7363244;19;20423;-39
2023/11/09 02:03:17;;;;;;;3.13;1.30;;;;;;;7.61;100.00;99959.50;7385188;19;20427;-38
2023/11/09 02:05:49;;;;;;;2.57;1.33;;;;;;;7.60;100.00;99944.03;7360525;19;20439;-39
2023/11/09 02:08:22;;;;;;;3.53;1.80;;;;;;;7.62;100.00;99925.28;7383684;19;20444;-39
2023/11/09 02:10:51;;;;;;;3.53;1.40;;;;;;;7.62;100.00;99909.91;7356804;19;20427;-40
2023/11/09 02:13:21;;;;;;;4.10;2.20;;;;;;;7.63;100.00;99918.47;7383165;19;20506;-38
2023/11/09 02:15:51;;;;;;;2.67;1.37;;;;;;;7.62;100.00;99914.13;7365331;19;20423;-38
2023/11/09 02:18:21;;;;;;;3.80;1.50;;;;;;;7.61;100.00;99931.25;7389939;19;20766;-40
2023/11/09 02:20:52;;;;;;;2.90;1.20;;;;;;;7.58;100.00;99928.53;7368434;19;20419;-38
2023/11/09 02:23:26;;;;;;;6.93;2.70;;;;;;;7.60;100.00;99947.47;7390598;19;20984;-38
2023/11/09 02:25:58;;;;;;;2.77;1.20;;;;;;;7.57;100.00;99955.94;7370577;19;20429;-40
2023/11/09 02:28:28;;;;;;;3.37;1.67;;;;;;;7.59;100.00;99979.06;7390793;19;20483;-40
2023/11/09 02:30:58;;;;;;;2.90;1.53;;;;;;;7.60;100.00;99985.97;7368397;19;20415;-40
2023/11/09 02:33:27;;;;;;;2.53;1.33;;;;;;;7.59;100.00;99989.34;7390022;19;20411;-39
2023/11/09 02:35:57;;;;;;;5.00;2.27;;;;;;;7.57;100.00;99998.69;7368129;19;20795;-40
2023/11/09 02:38:27;;;;;;;1.97;1.17;;;;;;;7.57;100.00;100024.34;7389248;19;20399;-39
2023/11/09 02:40:59;;;;;;;5.27;2.17;;;;;;;7.56;100.00;100036.34;7368752;19;20419;-39
2023/11/09 02:43:29;;;;;;;7.10;2.80;;;;;;;7.55;100.00;100054.22;7394431;19;20438;-42
2023/11/09 02:45:59;;;;;;;4.60;1.70;;;;;;;7.54;100.00;100085.84;7376013;19;20419;-39
2023/11/09 02:48:29;;;;;;;5.77;2.80;;;;;;;7.52;100.00;100115.69;7397360;19;20431;-40
2023/11/09 02:50:58;;;;;;;3.20;1.63;;;;;;;7.55;100.00;100133.81;7374149;19;20978;-39
2023/11/09 02:53:28;;;;;;;2.63;1.40;;;;;;;7.54;100.00;100144.91;7397600;19;20443;-41
2023/11/09 02:56:00;;;;;;;3.70;1.80;;;;;;;7.52;100.00;100159.34;7377285;19;20431;-39
2023/11/09 02:58:30;;;;;;;2.27;1.40;;;;;;;7.50;100.00;100177.25;7397190;19;20770;-42
2023/11/09 03:01:00;;;;;;;5.30;2.13;;;;;;;7.51;100.00;100196.97;7375293;19;20430;-41
2023/11/09 03:03:30;;;;;;;3.00;1.70;;;;;;;7.51;100.00;100208.91;7397612;19;20799;-41
2023/11/09 03:06:00;;;;;;;4.90;2.00;;;;;;;7.51;100.00;100219.19;7372910;19;20426;-39
2023/11/09 03:08:31;;;;;;;4.17;1.57;;;;;;;7.49;100.00;100220.81;7396711;19;20415;-39
2023/11/09 03:11:05;;;;;;;4.40;1.70;;;;;;;7.49;100.00;100234.50;7374452;19;20672;-39
2023/11/09 03:13:39;;;;;;;3.67;1.87;;;;;;;7.51;100.00;100232.03;7397269;19;20435;-39
2023/11/09 03:16:09;;;;;;;3.47;1.67;;;;;;;7.48;100.00;100225.06;7376657;19;20427;-40
2023/11/09 03:18:41;;;;;;;3.97;2.00;;;;;;;7.50;100.00;100231.16;7395639;19;20403;-40
2023/11/09 03:21:11;;;;;;;3.43;1.43;;;;;;;7.50;100.00;100230.28;7374766;19;20494;-40
2023/11/09 03:23:38;;;;;;;3.57;1.20;;;;;;;7.50;100.00;100235.41;7395867;19;20514;-40
2023/11/09 03:26:10;;;;;;;2.40;1.30;;;;;;;7.54;100.00;100227.03;7373422;19;20771;-40
2023/11/09 03:28:40;;;;;;;4.07;1.47;;;;;;;7.53;100.00;100235.53;7395223;19;20475;-40
2023/11/09 03:31:09;;;;;;;7.73;2.03;;;;;;;7.55;100.00;100234.78;7374459;19;20423;-40
2023/11/09 03:33:39;;;;;;;2.30;1.00;;;;;;;7.53;100.00;100238.09;7395632;19;20450;-40
2023/11/09 03:36:09;;;;;;;4.17;1.83;;;;;;;7.56;100.00;100233.13;7374237;19;20423;-40
2023/11/09 03:38:39;;;;;;;2.53;1.30;;;;;;;7.52;100.00;100233.78;7395685;19;20413;-41
2023/11/09 03:41:15;;;;;;;2.50;1.53;;;;;;;7.54;100.00;100232.19;7371260;19;20423;-40
2023/11/09 03:43:44;;;;;;;2.70;1.27;;;;;;;7.52;100.00;100238.91;7395982;19;20459;-39
2023/11/09 03:46:15;;;;;;;2.07;1.00;;;;;;;7.53;100.00;100244.13;7373939;19;21235;-39
2023/11/09 03:48:44;;;;;;;2.17;1.23;;;;;;;7.54;100.00;100230.47;7397403;19;20431;-39
2023/11/09 03:51:14;;;;;;;3.20;1.27;;;;;;;7.56;100.00;100240.81;7372951;19;20989;-39
2023/11/09 03:53:44;;;;;;;2.97;1.40;;;;;;;7.56;100.00;100228.00;7395101;19;20435;-40
2023/11/09 03:56:16;;;;;;;2.40;1.23;;;;;;;7.59;100.00;100227.25;7373814;19;20419;-40
2023/11/09 03:58:47;;;;;;;2.00;1.20;;;;;;;7.56;100.00;100230.56;7394476;19;20456;-39
2023/11/09 04:01:17;;;;;;;2.83;1.40;;;;;;;7.56;100.00;100228.00;7374533;19;20423;-40
2023/11/09 04:03:47;;;;;;;2.43;1.43;;;;;;;7.54;100.00;100234.75;7394865;19;20442;-38
2023/11/09 04:06:18;;;;;;;2.17;1.17;;;;;;;7.53;100.00;100227.84;7371908;19;20427;-39
2023/11/09 04:08:47;;;;;;;3.87;0.97;;;;;;;7.54;100.00;100229.63;7394650;19;20408;-39
2023/11/09 04:11:20;;;;;;;2.80;1.13;;;;;;;7.56;100.00;100225.41;7373128;19;20846;-40
2023/11/09 04:13:50;;;;;;;2.20;1.30;;;;;;;7.60;100.00;100206.78;7395298;19;20447;-40
2023/11/09 04:16:20;;;;;;;2.30;1.00;;;;;;;7.60;100.00;100211.03;7373266;19;20422;-39
2023/11/09 04:18:49;;;;;;;6.57;1.90;;;;;;;7.61;100.00;100212.78;7394409;19;20411;-39
2023/11/09 04:21:19;;;;;;;1.93;1.20;;;;;;;7.59;100.00;100222.97;7373556;19;20487;-39
2023/11/09 04:23:49;;;;;;;2.90;1.67;;;;;;;7.66;100.00;100217.34;7394817;19;20446;-40
2023/11/09 04:26:22;;;;;;;1.90;1.03;;;;;;;7.63;100.00;100201.78;7373447;19;20435;-39
2023/11/09 04:28:53;;;;;;;2.03;1.30;;;;;;;7.64;100.00;100202.66;7394047;19;20424;-40
2023/11/09 04:31:23;;;;;;;2.40;1.40;;;;;;;7.65;100.00;100215.56;7372462;19;20442;-40
2023/11/09 04:33:56;;;;;;;2.00;1.00;;;;;;;7.64;100.00;100213.78;7394584;19;20823;-40
2023/11/09 04:36:26;;;;;;;4.10;1.60;;;;;;;7.65;100.00;100215.56;7373398;19;20419;-40
2023/11/09 04:38:57;;;;;;;4.33;2.30;;;;;;;7.68;100.00;100217.38;7391747;19;20947;-40
2023/11/09 04:41:29;;;;;;;2.33;1.53;;;;;;;7.69;100.00;100202.03;7372717;19;20957;-39
2023/11/09 04:43:58;;;;;;;2.00;1.30;;;;;;;7.69;100.00;100204.63;7394280;19;20503;-39
2023/11/09 04:46:28;;;;;;;3.30;2.07;;;;;;;7.70;100.00;100202.94;7374119;19;20435;-41
2023/11/09 04:49:06;;;;;;;2.43;1.50;;;;;;;7.66;100.00;100204.50;7393459;19;20943;-40
2023/11/09 04:51:36;;;;;;;2.87;2.00;;;;;;;7.69;100.00;100199.47;7372705;19;20419;-40
2023/11/09 04:54:07;;;;;;;3.13;1.83;;;;;;;7.74;100.00;100206.53;7394137;19;20790;-39
2023/11/09 04:56:52;;;;;;;4.57;1.90;;;;;;;7.74;100.00;100188.53;7371448;19;20467;-40
2023/11/09 05:07:30;;;;;;;3.20;1.80;;;;;;;7.76;100.00;100166.38;7370837;19;20795;-41
2023/11/09 05:10:00;;;;;;;3.70;1.83;;;;;;;7.79;100.00;100166.53;7393239;19;20411;-40
2023/11/09 05:12:33;;;;;;;3.93;1.70;;;;;;;7.79;100.00;100161.38;7371438;19;20439;-40
2023/11/09 05:15:03;;;;;;;4.20;2.20;;;;;;;7.78;100.00;100162.16;7393769;19;21005;-39
2023/11/09 05:17:32;;;;;;;4.37;2.33;;;;;;;7.75;100.00;100160.34;7373641;19;20474;-40
2023/11/09 05:20:05;;;;;;;3.10;2.03;;;;;;;7.80;100.00;100152.84;7393834;19;20487;-41
2023/11/09 05:22:34;;;;;;;4.10;2.10;;;;;;;7.78;100.00;100151.88;7371879;19;21012;-39
2023/11/09 05:25:04;;;;;;;8.00;2.50;;;;;;;7.78;100.00;100151.88;7393525;19;20439;-39
2023/11/09 05:27:36;;;;;;;3.40;1.80;;;;;;;7.75;100.00;100149.22;7373722;19;20446;-39
2023/11/09 05:30:08;;;;;;;3.17;2.00;;;;;;;7.73;100.00;100151.69;7393370;19;20408;-38
2023/11/09 05:32:38;;;;;;;2.73;2.17;;;;;;;7.72;100.00;100154.19;7370980;19;20866;-40
2023/11/09 05:35:10;;;;;;;3.57;2.50;;;;;;;7.75;100.00;100157.78;7371025;19;20467;-38
2023/11/09 05:37:40;;;;;;;5.47;2.50;;;;;;;7.76;100.00;100149.28;7391030;19;20750;-39
2023/11/09 05:40:12;;;;;;;5.50;1.80;;;;;;;7.73;100.00;100150.84;7370288;19;20415;-40
2023/11/09 05:42:45;;;;;;;5.97;1.90;;;;;;;7.73;100.00;100153.41;7387338;19;20407;-39
2023/11/09 05:45:15;;;;;;;3.87;2.50;;;;;;;7.76;100.00;100148.38;7370191;19;20435;-39
2023/11/09 05:47:44;;;;;;;2.50;1.87;;;;;;;7.73;100.00;100148.28;7391334;19;20420;-39
2023/11/09 05:50:14;;;;;;;3.20;1.73;;;;;;;7.74;100.00;100142.31;7369095;19;20404;-39
2023/11/09 05:52:44;;;;;;;6.37;2.90;;;;;;;7.75;100.00;100146.63;7391447;19;20404;-41
2023/11/09 05:55:13;;;;;;;2.77;1.90;;;;;;;7.72;100.00;100143.91;7369937;19;20420;-39
2023/11/09 05:57:46;;;;;;;5.87;2.67;;;;;;;7.72;100.00;100149.06;7393200;19;20416;-40
2023/11/09 06:00:18;;;;;;;5.77;2.00;;;;;;;7.72;100.00;100146.50;7369347;19;20945;-38
2023/11/09 06:02:47;;;;;;;3.47;2.30;;;;;;;7.76;100.00;100148.38;7391519;19;20403;-40
2023/11/09 06:05:17;;;;;;;4.10;2.33;;;;;;;7.73;100.00;100143.13;7367604;19;20979;-41
2023/11/09 06:07:47;;;;;;;3.80;2.27;;;;;;;7.70;100.00;100149.88;7392860;19;20408;-41
2023/11/09 06:10:17;;;;;;;4.87;2.70;;;;;;;7.69;100.00;100145.56;7369020;19;20415;-39
2023/11/09 06:12:49;;;;;;;5.77;3.20;;;;;;;7.67;100.00;100147.19;7391019;19;20407;-39
2023/11/09 06:15:20;;;;;;;6.00;3.10;;;;;;;7.65;100.00;100158.19;7370344;19;20455;-38
2023/11/09 06:17:49;;;;;;;6.33;3.83;;;;;;;7.67;100.00;100152.31;7390811;19;20403;-38
2023/11/09 06:20:20;;;;;;;4.63;2.80;;;;;;;7.66;100.00;100149.69;7369304;19;20966;-38
2023/11/09 06:22:53;;;;;;;4.40;2.67;;;;;;;7.64;100.00;100144.47;7390717;19;20833;-39
2023/11/09 06:25:22;;;;;;;5.83;2.87;;;;;;;7.65;100.00;100135.94;7369953;19;20432;-39
2023/11/09 06:27:55;;;;;;;8.50;4.30;;;;;;;7.67;100.00;100130.88;7390695;19;20408;-40
2023/11/09 06:30:27;;;;;;;6.47;2.80;;;;;;;7.72;100.00;100128.50;7369049;19;20419;-39
2023/11/09 06:32:56;;;;;;;4.50;2.40;;;;;;;7.71;100.00;100122.53;7390702;19;20742;-42
2023/11/09 06:35:26;;;;;;;3.60;2.40;;;;;;;7.72;100.00;100124.28;7369896;19;20966;-39
2023/11/09 06:37:56;;;;;;;3.23;2.00;;;;;;;7.67;100.00;100131.78;7389405;19;20424;-39
2023/11/09 06:40:30;;;;;;;3.50;2.50;;;;;;;7.70;100.00;100128.47;7369321;19;20411;-39
2023/11/09 06:43:02;;;;;;;3.63;2.57;;;;;;;7.68;100.00;100128.41;7390693;19;20417;-40
2023/11/09 06:45:32;;;;;;;4.93;2.93;;;;;;;7.69;100.00;100130.16;7369505;19;20485;-40
2023/11/09 06:48:02;;;;;;;3.33;2.73;;;;;;;7.68;100.00;100128.41;7389837;19;20410;-40
2023/11/09 06:50:31;;;;;;;10.23;2.40;;;;;;;7.66;100.00;100132.59;7369570;19;20395;-39
2023/11/09 06:53:01;;;;;;;8.83;2.77;;;;;;;7.63;100.00;100144.44;7389506;19;20412;-40
2023/11/09 06:55:31;;;;;;;4.23;2.40;;;;;;;7.61;100.00;100146.03;7368872;19;20394;-39
2023/11/09 06:58:03;;;;;;;4.90;2.70;;;;;;;7.57;100.00;100147.59;7388949;19;21286;-39
2023/11/09 07:00:33;;;;;;;3.20;2.20;;;;;;;7.61;100.00;100140.88;7366856;19;20419;-39
2023/11/09 07:03:02;;;;;;;4.10;2.37;;;;;;;7.55;100.00;100141.50;7395633;19;20413;-40
2023/11/09 07:05:32;;;;;;;5.13;2.70;;;;;;;7.55;100.00;100144.06;7373640;19;20390;-39
2023/11/09 07:08:02;;;;;;;8.83;2.80;;;;;;;7.56;100.00;100136.47;7392986;19;20411;-38
2023/11/09 07:10:33;;;;;;;3.50;1.77;;;;;;;7.54;100.00;100137.19;7363093;19;20559;-39
2023/11/09 07:13:05;;;;;;;10.50;3.57;;;;;;;7.53;100.00;100133.72;7388090;19;20407;-38
2023/11/09 07:15:36;;;;;;;10.97;5.43;;;;;;;7.55;100.00;100132.09;7367275;19;20426;-39
2023/11/09 07:18:07;;;;;;;3.20;2.33;;;;;;;7.56;100.00;100127.84;7388358;19;20494;-38
2023/11/09 07:20:38;;;;;;;3.97;2.20;;;;;;;7.53;100.00;100122.56;7367320;19;20418;-40
2023/11/09 07:23:09;;;;;;;3.93;2.50;;;;;;;7.52;100.00;100110.56;7387811;19;20479;-41
2023/11/09 07:25:40;;;;;;;12.30;5.33;;;;;;;7.53;100.00;100107.16;7366928;19;20418;-40
2023/11/09 07:28:13;;;;;;;23.80;9.60;;;;;;;7.54;100.00;100093.56;7387414;19;20417;-39
2023/11/09 07:30:47;;;;;;;5.07;2.40;;;;;;;7.52;100.00;100082.31;7367262;19;20812;-39
2023/11/09 07:33:17;;;;;;;5.73;2.90;;;;;;;7.54;100.00;100101.25;7390444;19;20396;-40
2023/11/09 07:35:47;;;;;;;2.83;2.10;;;;;;;7.53;100.00;100091.78;7366763;19;20492;-40
2023/11/09 07:38:16;;;;;;;5.20;3.10;;;;;;;7.57;100.00;100073.13;7387060;19;20486;-40
2023/11/09 07:40:46;;;;;;;5.23;3.23;;;;;;;7.54;100.00;100073.88;7368726;19;20522;-41
2023/11/09 07:43:19;;;;;;;3.57;2.33;;;;;;;7.55;100.00;100061.94;7386725;19;20427;-40
2023/11/09 07:45:48;;;;;;;5.07;2.40;;;;;;;7.55;100.00;100055.09;7365946;19;20864;-39
2023/11/09 07:48:21;;;;;;;4.10;2.57;;;;;;;7.57;100.00;100053.47;7389878;19;20422;-38
2023/11/09 07:50:50;;;;;;;5.50;2.73;;;;;;;7.60;100.00;100041.56;7367929;19;20437;-38
2023/11/09 07:53:20;;;;;;;6.63;3.07;;;;;;;7.63;100.00;100042.59;7389465;19;20503;-39
2023/11/09 07:55:50;;;;;;;10.33;4.50;;;;;;;7.63;100.00;100042.59;7366098;19;20423;-39
2023/11/09 07:58:22;;;;;;;5.33;2.33;;;;;;;7.62;100.00;100040.84;7387820;19;20408;-40
2023/11/09 08:00:52;;;;;;;5.30;2.87;;;;;;;7.60;100.00;100039.00;7367476;19;20447;-39
2023/11/09 08:03:22;;;;;;;3.77;2.33;;;;;;;7.60;100.00;100036.44;7387497;19;20438;-39
2023/11/09 08:05:51;;;;;;;3.60;1.87;;;;;;;7.60;100.00;100034.78;7365100;19;20974;-40
2023/11/09 08:08:21;;;;;;;2.90;2.03;;;;;;;7.59;100.00;100038.13;7387150;19;20486;-42
2023/11/09 08:10:50;;;;;;;4.77;3.30;;;;;;;7.62;100.00;100030.56;7366260;19;20994;-40
2023/11/09 08:13:25;;;;;;;2.80;1.90;;;;;;;7.63;100.00;100032.31;7386994;19;20418;-39
2023/11/09 08:15:54;;;;;;;3.40;2.00;;;;;;;7.61;100.00;100026.25;7364619;19;20434;-39
2023/11/09 08:18:24;;;;;;;3.13;1.53;;;;;;;7.62;100.00;100024.53;7382304;19;20950;-42
2023/11/09 08:20:53;;;;;;;3.53;2.00;;;;;;;7.64;100.00;100022.94;7364244;19;20423;-40
2023/11/09 08:23:23;;;;;;;2.47;1.70;;;;;;;7.65;100.00;100019.53;7393720;19;20848;-40
2023/11/09 08:25:53;;;;;;;2.90;1.47;;;;;;;7.62;100.00;100027.09;7372368;19;20422;-40
2023/11/09 08:28:25;;;;;;;3.70;1.70;;;;;;;7.62;100.00;100030.56;7394305;19;20491;-40
2023/11/09 08:30:58;;;;;;;3.90;2.20;;;;;;;7.65;100.00;100037.53;7370953;19;21034;-39
2023/11/09 08:33:27;;;;;;;1.80;1.13;;;;;;;7.64;100.00;100054.59;7395127;19;20927;-39
2023/11/09 08:36:00;;;;;;;2.53;1.70;;;;;;;7.65;100.00;100040.94;7372119;19;20420;-40
2023/11/09 08:38:33;;;;;;;2.10;0.93;;;;;;;7.65;100.00;100046.09;7394927;19;20407;-40
2023/11/09 08:41:05;;;;;;;3.37;1.40;;;;;;;7.65;100.00;100051.22;7371627;19;20435;-39
2023/11/09 08:43:38;;;;;;;4.30;1.60;;;;;;;7.66;100.00;100058.13;7393617;19;20471;-50
2023/11/09 08:46:08;;;;;;;3.43;1.93;;;;;;;7.69;100.00;100052.22;7370629;19;20451;-49
2023/11/09 08:48:40;;;;;;;2.20;1.53;;;;;;;7.67;100.00;100054.75;7395155;19;20407;-47
2023/11/09 08:51:13;;;;;;;1.70;0.90;;;;;;;7.67;100.00;100059.88;7373428;19;20443;-51
2023/11/09 08:53:44;;;;;;;1.67;1.30;;;;;;;7.65;100.00;100046.09;7394704;19;20431;-50
2023/11/09 08:56:18;;;;;;;1.97;1.20;;;;;;;7.68;100.00;100037.63;7371828;19;21163;-51
2023/11/09 08:58:51;;;;;;;3.30;1.20;;;;;;;7.70;100.00;100031.75;7394698;19;20784;-49
2023/11/09 09:01:21;;;;;;;2.40;1.50;;;;;;;7.69;100.00;100027.44;7372804;19;20430;-47
2023/11/09 09:03:53;;;;;;;9.60;4.13;;;;;;;7.72;100.00;100012.97;7393786;19;20452;-48
2023/11/09 09:06:23;;;;;;;2.47;1.40;;;;;;;7.72;100.00;100007.81;7371965;19;20856;-48
2023/11/09 09:08:52;;;;;;;5.57;2.50;;;;;;;7.76;100.00;99999.44;7394726;19;20412;-48
2023/11/09 09:11:22;;;;;;;4.83;2.00;;;;;;;7.72;100.00;99995.88;7371248;19;20419;-52
2023/11/09 09:13:57;;;;;;;2.43;1.50;;;;;;;7.73;100.00;99994.19;7394805;19;21160;-50
2023/11/09 09:16:29;;;;;;;2.70;1.47;;;;;;;7.74;100.00;99998.50;7371549;19;20482;-49
2023/11/09 09:18:58;;;;;;;2.60;1.30;;;;;;;7.74;100.00;100004.50;7394857;19;20431;-49
2023/11/09 09:21:28;;;;;;;1.93;1.23;;;;;;;7.75;100.00;99997.69;7372617;19;20505;-49
2023/11/09 09:23:58;;;;;;;2.83;1.60;;;;;;;7.76;100.00;99996.88;7392000;19;20440;-49
2023/11/09 09:26:30;;;;;;;4.53;1.70;;;;;;;7.77;100.00;100002.09;7371938;19;20419;-49
2023/11/09 09:29:02;;;;;;;2.23;1.40;;;;;;;7.79;100.00;100002.16;7392642;19;20432;-48
2023/11/09 09:31:31;;;;;;;5.97;2.63;;;;;;;7.85;100.00;100002.41;7371107;19;20419;-47
2023/11/09 09:34:07;;;;;;;2.07;1.37;;;;;;;7.83;100.00;100006.56;7393775;19;20456;-52
2023/11/09 09:36:40;;;;;;;2.83;1.33;;;;;;;7.86;100.00;100017.00;7371414;19;20419;-49
2023/11/09 09:39:09;;;;;;;2.70;1.63;;;;;;;7.84;100.00;100016.94;7394927;19;20420;-49
2023/11/09 09:41:50;;;;;;;2.07;1.43;;;;;;;7.86;100.00;100011.84;7371280;19;20950;-48
2023/11/09 09:44:22;;;;;;;2.83;1.43;;;;;;;7.84;100.00;100024.63;7393732;19;20470;-46
2023/11/09 09:46:55;;;;;;;4.53;1.70;;;;;;;7.88;100.00;100028.19;7369889;19;20449;-49
2023/11/09 09:49:25;;;;;;;3.00;1.50;;;;;;;7.86;100.00;100031.50;7393433;19;20403;-52
2023/11/09 09:52:01;;;;;;;4.30;2.67;;;;;;;7.91;100.00;100033.47;7371105;19;20434;-48
2023/11/09 09:54:31;;;;;;;2.73;1.80;;;;;;;7.90;100.00;100035.97;7393987;19;20816;-48
2023/11/09 09:57:03;;;;;;;4.03;2.70;;;;;;;7.90;100.00;100041.13;7368428;19;21015;-50
2023/11/09 09:59:36;;;;;;;3.30;2.07;;;;;;;7.91;100.00;100048.00;7395415;19;20817;-47
2023/11/09 10:02:08;;;;;;;3.30;1.87;;;;;;;7.92;100.00;100042.94;7368504;19;20419;-47
2023/11/09 10:04:38;;;;;;;5.00;3.60;;;;;;;7.95;100.00;100053.31;7394001;19;20467;-47
2023/11/09 10:07:08;;;;;;;4.17;3.03;;;;;;;8.00;100.00;100058.63;7368028;19;20788;-47
2023/11/09 10:09:38;;;;;;;8.27;4.20;;;;;;;8.03;100.00;100065.59;7393371;19;20400;-49
2023/11/09 10:12:09;;;;;;;4.57;2.87;;;;;;;8.03;100.00;100073.31;7369788;19;20777;-49
2023/11/09 10:14:42;;;;;;;3.93;3.00;;;;;;;8.08;100.00;100077.84;7394007;19;20454;-49
2023/11/09 10:17:11;;;;;;;3.50;2.60;;;;;;;8.07;100.00;100085.47;7370025;19;20494;-48
2023/11/09 10:19:46;;;;;;;3.90;2.53;;;;;;;8.04;100.00;100091.34;7391537;19;20399;-50
2023/11/09 10:22:19;;;;;;;2.73;1.63;;;;;;;8.02;100.00;100097.25;7366787;19;20450;-50
2023/11/09 10:24:52;;;;;;;4.03;2.87;;;;;;;8.06;100.00;100104.28;7384926;19;20423;-52
2023/11/09 10:27:22;;;;;;;4.27;2.43;;;;;;;8.09;100.00;100106.97;7363098;19;20453;-48
2023/11/09 10:29:56;;;;;;;3.03;2.07;;;;;;;8.08;100.00;100102.63;7387586;19;20421;-49
2023/11/09 10:32:26;;;;;;;3.60;2.47;;;;;;;8.09;100.00;100099.25;7361413;19;20494;-51
2023/11/09 10:34:55;;;;;;;3.40;2.73;;;;;;;8.11;100.00;100105.34;7380918;19;20820;-48
2023/11/09 10:37:29;;;;;;;3.30;2.20;;;;;;;8.10;100.00;100106.13;7366689;19;20479;-48
2023/11/09 10:40:04;;;;;;;4.37;2.60;;;;;;;8.15;100.00;100109.78;7390616;19;21019;-50
2023/11/09 10:42:35;;;;;;;5.23;2.90;;;;;;;8.15;100.00;100108.91;7369162;19;20423;-46
2023/11/09 10:45:22;;;;;;;8.33;4.47;;;;;;;8.21;100.00;100092.03;7368066;19;20415;-51
2023/11/09 10:47:52;;;;;;;5.63;3.10;;;;;;;8.24;100.00;100094.75;7393443;19;20491;-48
2023/11/09 10:50:24;;;;;;;3.97;3.03;;;;;;;8.28;100.00;100097.44;7367233;19;20951;-52
2023/11/09 10:52:53;;;;;;;5.03;3.27;;;;;;;8.24;100.00;100099.00;7391385;19;20487;-49
2023/11/09 10:55:24;;;;;;;8.83;5.47;;;;;;;8.29;100.00;100096.63;7365329;19;20415;-52
2023/11/09 10:57:55;;;;;;;6.30;3.17;;;;;;;8.27;100.00;100099.16;7389950;19;20424;-49
2023/11/09 11:00:42;;;;;;;5.20;2.90;;;;;;;8.23;100.00;100090.44;7367236;19;20423;-50
2023/11/09 11:03:19;;;;;;;4.73;3.10;;;;;;;8.23;100.00;100082.72;7390814;19;20523;-49
2023/11/09 11:05:53;;;;;;;3.87;2.53;;;;;;;8.23;100.00;100069.88;7369631;19;21066;-46
2023/11/09 11:08:26;;;;;;;3.67;2.80;;;;;;;8.23;100.00;100057.03;7388863;19;20471;-52
2023/11/09 11:10:56;;;;;;;4.90;2.60;;;;;;;8.24;100.00;100048.50;7369585;19;20483;-52
2023/11/09 11:13:28;;;;;;;8.53;4.37;;;;;;;8.28;100.00;100043.47;7389476;19;20518;-47
2023/11/09 11:16:22;;;;;;;4.33;3.00;;;;;;;8.34;100.00;100039.44;7368517;19;20462;-49
2023/11/09 11:19:00;;;;;;;6.60;4.80;;;;;;;8.40;100.00;100038.81;7389676;19;20407;-51
2023/11/09 11:21:45;;;;;;;6.27;4.40;;;;;;;8.45;100.00;100044.13;7369583;19;20426;-52
2023/11/09 11:24:39;;;;;;;8.30;5.03;;;;;;;8.55;100.00;100064.28;7389606;19;20446;-48
2023/11/09 11:27:14;;;;;;;6.80;4.93;;;;;;;8.55;100.00;100079.69;7366309;19;20419;-48
2023/11/09 11:29:50;;;;;;;6.50;4.90;;;;;;;8.67;100.00;100079.28;7389681;19;20407;-47
2023/11/09 11:32:38;;;;;;;6.57;4.00;;;;;;;8.76;100.00;100077.09;7366813;19;20423;-52
2023/11/09 11:35:11;;;;;;;8.70;5.57;;;;;;;8.83;100.00;100077.31;7372277;19;20793;-52
2023/11/09 11:37:40;;;;;;;7.87;5.00;;;;;;;8.84;100.00;100089.34;7391062;19;20407;-48
2023/11/09 11:40:11;;;;;;;6.90;5.10;;;;;;;8.84;100.00;100094.50;7365626;19;20872;-50
2023/11/09 11:42:42;;;;;;;6.60;4.93;;;;;;;8.88;100.00;100099.81;7391131;19;20414;-47
2023/11/09 11:45:12;;;;;;;11.13;7.07;;;;;;;8.90;100.00;100089.59;7368479;19;20769;-50
2023/11/09 11:47:45;;;;;;;7.27;5.20;;;;;;;8.84;100.00;100091.94;7388743;19;20399;-50
2023/11/09 11:50:16;;;;;;;20.63;9.80;;;;;;;8.85;100.00;100083.38;7367673;19;20403;-47
2023/11/09 11:52:50;;;;;;;7.90;5.10;;;;;;;8.86;100.00;100077.41;7388230;19;20412;-52